Time;durP1;ratioP1;P1;durP2;ratioP2;P2;SDS_P1;SDS_P2;PMS_P1;PMS_P2;Temp;Humidity;BMP_temperature;BMP_pressure;BME280_temperature;BME280_humidity;BME280_pressure;Samples;Min_cycle;Max_cycle;Signal;HPM_P1;HPM_P2
2022/01/19 00:01:16;;;;;;;69.40;34.25;;;5.20;99.90;;;;;;4990321;28;20505;-94
2022/01/19 00:03:41;;;;;;;73.53;30.42;;;5.20;99.90;;;;;;4995560;28;20034;-94
2022/01/19 00:06:07;;;;;;;71.53;34.45;;;5.20;99.90;;;;;;5011153;28;20044;-94
2022/01/19 00:08:33;;;;;;;76.35;35.40;;;5.30;99.90;;;;;;5011879;28;20053;-93
2022/01/19 00:10:58;;;;;;;78.30;33.72;;;5.30;99.90;;;;;;4996945;28;20382;-94
2022/01/19 00:13:25;;;;;;;68.35;31.92;;;5.30;99.90;;;;;;5010864;28;20071;-95
2022/01/19 00:15:52;;;;;;;72.18;34.60;;;5.30;99.90;;;;;;4999463;28;20045;-95
2022/01/19 00:18:26;;;;;;;73.15;31.95;;;5.30;99.90;;;;;;5000699;28;20136;-94
2022/01/19 00:20:54;;;;;;;69.13;34.17;;;5.30;99.90;;;;;;5016184;28;20041;-93
2022/01/19 00:23:22;;;;;;;62.25;29.73;;;5.40;99.90;;;;;;5015586;28;20426;-94
2022/01/19 00:25:49;;;;;;;60.70;31.60;;;5.40;99.90;;;;;;4985105;28;20049;-93
2022/01/19 00:28:15;;;;;;;56.63;29.33;;;5.40;99.90;;;;;;4999764;28;20079;-94
2022/01/19 00:30:41;;;;;;;55.45;27.25;;;5.40;99.90;;;;;;5003109;28;20042;-94
2022/01/19 00:33:13;;;;;;;52.40;28.00;;;5.40;99.90;;;;;;5003995;28;20683;-95
2022/01/19 00:35:39;;;;;;;57.60;28.48;;;5.40;99.90;;;;;;5017696;28;20486;-95
2022/01/19 00:38:09;;;;;;;53.92;26.83;;;5.50;99.90;;;;;;5019380;28;20041;-95
2022/01/19 00:40:36;;;;;;;54.30;29.48;;;5.50;99.90;;;;;;5000571;28;20109;-93
2022/01/19 00:43:02;;;;;;;52.83;26.80;;;5.50;99.90;;;;;;5003521;28;20053;-94
2022/01/19 00:45:28;;;;;;;56.05;30.17;;;5.50;99.90;;;;;;5016652;28;20038;-95
2022/01/19 00:48:03;;;;;;;61.35;31.95;;;5.50;99.90;;;;;;5001590;28;20049;-95
2022/01/19 00:50:30;;;;;;;55.67;27.95;;;5.50;99.90;;;;;;5015675;28;20040;-94
2022/01/19 00:52:56;;;;;;;60.10;28.25;;;5.40;99.90;;;;;;4993448;28;20133;-95
2022/01/19 00:55:23;;;;;;;59.92;30.38;;;5.40;99.90;;;;;;5014936;28;20192;-95
2022/01/19 00:57:49;;;;;;;59.00;28.20;;;5.20;99.90;;;;;;5014379;28;20038;-95
2022/01/19 01:00:24;;;;;;;63.10;30.70;;;5.20;99.90;;;;;;4998229;28;20048;-95
2022/01/19 01:02:58;;;;;;;55.33;28.73;;;5.10;99.90;;;;;;5015799;28;20049;-96
2022/01/19 01:05:24;;;;;;;58.45;27.02;;;5.10;99.90;;;;;;4999428;28;20426;-94
2022/01/19 01:07:50;;;;;;;55.70;26.75;;;5.00;99.90;;;;;;4998532;28;20398;-94
2022/01/19 01:10:18;;;;;;;56.58;25.80;;;5.00;99.90;;;;;;4997082;28;20132;-94
2022/01/19 01:12:49;;;;;;;58.72;27.60;;;5.10;99.90;;;;;;5003999;28;20073;-94
2022/01/19 01:15:47;;;;;;;61.83;27.80;;;5.10;99.90;;;;;;5031732;28;20056;-93
2022/01/19 01:18:20;;;;;;;63.92;27.75;;;5.10;99.90;;;;;;4987003;28;20124;-94
2022/01/19 01:20:48;;;;;;;62.00;28.75;;;5.10;99.90;;;;;;4982507;28;20038;-93
2022/01/19 01:23:14;;;;;;;56.00;28.88;;;5.20;99.90;;;;;;5016687;28;20049;-94
2022/01/19 01:25:40;;;;;;;59.28;27.05;;;5.20;99.90;;;;;;4993939;28;20034;-94
2022/01/19 01:28:07;;;;;;;68.13;30.95;;;5.20;99.90;;;;;;5019120;28;20389;-94
2022/01/19 01:30:34;;;;;;;62.42;27.65;;;5.20;99.90;;;;;;5014975;28;20394;-93
2022/01/19 01:33:18;;;;;;;59.97;26.35;;;5.20;99.90;;;;;;4999754;28;20087;-94
2022/01/19 01:35:44;;;;;;;63.53;27.17;;;5.20;99.90;;;;;;4993682;28;20128;-94
2022/01/19 01:38:10;;;;;;;65.72;29.90;;;5.30;99.90;;;;;;5015436;28;20076;-94
2022/01/19 01:40:37;;;;;;;54.15;28.90;;;5.20;99.90;;;;;;5010757;28;20034;-95
2022/01/19 01:43:06;;;;;;;55.03;27.15;;;5.20;99.90;;;;;;4983041;28;20046;-94
2022/01/19 01:45:35;;;;;;;61.75;27.70;;;5.20;99.90;;;;;;4996796;28;20037;-93
2022/01/19 01:48:09;;;;;;;61.22;28.98;;;5.20;99.90;;;;;;4983108;28;20042;-93
2022/01/19 01:53:26;;;;;;;56.90;26.98;;;5.10;99.90;;;;;;5005486;28;20132;-94
2022/01/19 01:55:56;;;;;;;61.22;27.80;;;5.10;99.90;;;;;;4996193;28;20041;-94
2022/01/19 01:58:22;;;;;;;64.82;29.10;;;5.10;99.90;;;;;;4998552;28;20080;-96
2022/01/19 02:00:48;;;;;;;61.78;30.75;;;5.10;99.90;;;;;;5016069;28;20461;-93
2022/01/19 02:03:14;;;;;;;61.22;26.48;;;5.10;99.90;;;;;;5018358;28;20056;-93
2022/01/19 02:05:54;;;;;;;62.97;28.67;;;5.10;99.90;;;;;;5012843;28;20132;-93
2022/01/19 02:08:22;;;;;;;64.43;29.20;;;5.10;99.90;;;;;;5001822;28;20048;-94
2022/01/19 02:15:49;;;;;;;62.15;27.77;;;5.10;99.90;;;;;;5000339;28;20041;-93
2022/01/19 02:21:38;;;;;;;60.22;28.95;;;5.00;99.90;;;;;;5008634;28;20077;-96
2022/01/19 02:22:20;;;;;;;70.85;32.03;;;5.00;99.90;;;;;;5009248;28;20441;-93
2022/01/19 02:24:46;;;;;;;67.70;30.80;;;5.00;99.90;;;;;;4998098;28;20037;-94
2022/01/19 02:30:58;;;;;;;59.42;28.90;;;5.00;99.90;;;;;;5030923;28;20056;-95
2022/01/19 02:41:33;;;;;;;61.22;27.88;;;4.90;99.90;;;;;;5030992;28;20042;-94
2022/01/19 02:43:59;;;;;;;61.95;27.95;;;4.90;99.90;;;;;;4992876;28;20038;-95
2022/01/19 02:49:28;;;;;;;68.57;29.23;;;4.90;99.90;;;;;;5038256;28;20041;-94
2022/01/19 02:51:54;;;;;;;62.33;27.80;;;4.80;99.90;;;;;;5002846;28;20041;-94
2022/01/19 02:54:23;;;;;;;66.13;30.13;;;4.80;99.90;;;;;;5036610;28;20061;-94
2022/01/19 02:56:52;;;;;;;72.03;31.50;;;4.80;99.90;;;;;;4994554;28;20124;-94
2022/01/19 02:59:29;;;;;;;63.50;29.98;;;4.80;99.90;;;;;;4993735;28;20115;-94
2022/01/19 03:10:08;;;;;;;65.68;29.25;;;4.80;99.90;;;;;;5008410;28;20057;-93
2022/01/19 03:12:33;;;;;;;67.93;30.58;;;4.80;99.90;;;;;;4994616;28;20049;-93
2022/01/19 03:14:59;;;;;;;63.90;30.30;;;4.90;99.90;;;;;;5013342;28;20033;-94
2022/01/19 03:17:34;;;;;;;65.43;28.63;;;4.80;99.90;;;;;;4996886;28;20049;-95
2022/01/19 03:20:00;;;;;;;62.47;29.52;;;4.80;99.90;;;;;;5012978;28;20034;-93
2022/01/19 03:22:33;;;;;;;68.68;29.80;;;4.80;99.90;;;;;;5014641;28;20045;-94
2022/01/19 03:24:59;;;;;;;68.25;29.40;;;4.80;99.90;;;;;;5012926;28;20394;-94
2022/01/19 03:27:25;;;;;;;69.70;32.00;;;4.80;99.90;;;;;;5014228;28;20048;-93
2022/01/19 03:29:50;;;;;;;69.78;32.85;;;4.80;99.90;;;;;;4996472;28;20048;-93
2022/01/19 03:32:17;;;;;;;67.13;29.05;;;4.70;99.90;;;;;;4982771;28;20038;-95
2022/01/19 03:34:43;;;;;;;69.78;32.08;;;4.70;99.90;;;;;;4994790;28;20064;-93
2022/01/19 03:37:11;;;;;;;70.20;34.67;;;4.70;99.90;;;;;;5013777;28;20091;-94
2022/01/19 03:39:36;;;;;;;86.80;32.60;;;4.70;99.90;;;;;;5012524;28;20041;-93
2022/01/19 03:42:02;;;;;;;76.18;32.83;;;4.70;99.90;;;;;;5013337;28;20061;-94
2022/01/19 03:44:28;;;;;;;68.90;31.92;;;4.70;99.90;;;;;;4994358;28;20051;-94
2022/01/19 03:47:12;;;;;;;63.83;29.65;;;4.70;99.90;;;;;;4994361;28;20490;-92
2022/01/19 03:49:38;;;;;;;61.50;29.60;;;4.60;99.90;;;;;;5015365;28;20048;-93
2022/01/19 03:52:05;;;;;;;68.05;31.63;;;4.60;99.90;;;;;;5005744;28;20057;-92
2022/01/19 03:54:34;;;;;;;64.97;29.67;;;4.60;99.90;;;;;;5015793;28;20042;-93
2022/01/19 03:57:00;;;;;;;64.97;31.27;;;4.50;99.90;;;;;;5015918;28;20464;-93
2022/01/19 03:59:27;;;;;;;64.72;31.38;;;4.50;99.90;;;;;;5015552;28;20428;-92
2022/01/19 04:01:59;;;;;;;58.75;29.13;;;4.50;99.90;;;;;;5017623;28;20037;-93
2022/01/19 04:04:40;;;;;;;61.28;28.55;;;4.50;99.90;;;;;;5018000;28;20072;-93
2022/01/19 04:09:32;;;;;;;52.53;27.08;;;4.50;99.90;;;;;;5001482;28;20046;-93
2022/01/19 04:11:58;;;;;;;54.35;27.40;;;4.40;99.90;;;;;;4990161;28;20087;-94
2022/01/19 04:14:26;;;;;;;53.67;27.48;;;4.40;99.90;;;;;;5032535;28;20049;-94
2022/01/19 04:17:16;;;;;;;50.22;25.52;;;4.40;99.90;;;;;;4997445;28;20073;-94
2022/01/19 04:19:44;;;;;;;56.58;25.63;;;4.40;99.90;;;;;;4992216;28;20033;-94
2022/01/19 04:22:13;;;;;;;50.35;26.13;;;4.30;99.90;;;;;;4997472;28;20073;-93
2022/01/19 04:24:40;;;;;;;48.15;24.92;;;4.30;99.90;;;;;;5011716;28;20037;-93
2022/01/19 04:30:10;;;;;;;46.42;23.52;;;4.20;99.90;;;;;;5013963;28;20072;-94
2022/01/19 04:35:28;;;;;;;56.50;27.33;;;4.10;99.90;;;;;;5015631;28;20053;-93
2022/01/19 04:54:38;;;;;;;55.40;26.42;;;3.90;99.90;;;;;;4955994;28;20058;-94
2022/01/19 05:07:58;;;;;;;53.90;24.80;;;3.80;99.90;;;;;;4955028;28;20062;-94
2022/01/19 05:15:47;;;;;;;71.55;28.90;;;3.80;99.90;;;;;;4952478;28;20047;-92
2022/01/19 05:18:26;;;;;;;64.45;28.70;;;3.70;99.90;;;;;;4940376;28;20059;-94
2022/01/19 05:20:51;;;;;;;60.60;28.13;;;3.70;99.90;;;;;;4939897;28;20447;-94
2022/01/19 05:23:17;;;;;;;69.10;29.50;;;3.60;99.90;;;;;;4939411;28;20055;-94
2022/01/19 05:25:45;;;;;;;62.05;27.27;;;3.60;99.90;;;;;;4968507;28;20060;-93
2022/01/19 05:28:10;;;;;;;62.35;29.65;;;3.60;99.90;;;;;;5015608;28;20083;-94
2022/01/19 05:30:36;;;;;;;60.88;28.70;;;3.50;99.90;;;;;;4988137;28;20069;-94
2022/01/19 05:33:11;;;;;;;65.85;29.63;;;3.50;99.90;;;;;;5016025;28;20037;-93
2022/01/19 05:35:36;;;;;;;64.43;27.13;;;3.50;99.90;;;;;;4991762;28;20045;-94
2022/01/19 05:38:02;;;;;;;66.18;29.20;;;3.50;99.90;;;;;;5017384;28;20022;-94
2022/01/19 05:40:27;;;;;;;61.75;29.08;;;3.60;99.90;;;;;;5033164;28;20049;-92
2022/01/19 05:42:53;;;;;;;64.40;29.38;;;3.60;99.90;;;;;;5006018;28;20045;-93
2022/01/19 05:45:19;;;;;;;70.47;31.15;;;3.60;99.90;;;;;;5021375;28;20013;-94
2022/01/19 05:47:50;;;;;;;76.50;31.75;;;3.60;99.90;;;;;;5011889;28;20064;-93
2022/01/19 05:50:16;;;;;;;72.47;31.73;;;3.60;99.90;;;;;;5001347;28;20445;-93
2022/01/19 05:52:41;;;;;;;73.20;31.50;;;3.60;99.90;;;;;;5013986;28;20050;-95
2022/01/19 05:55:07;;;;;;;70.80;32.28;;;3.60;99.90;;;;;;4997645;28;20114;-94
2022/01/19 05:57:33;;;;;;;70.68;30.75;;;3.60;99.90;;;;;;4993580;28;20050;-93
2022/01/19 05:59:59;;;;;;;67.28;30.77;;;3.60;99.90;;;;;;4991505;28;20087;-93
2022/01/19 06:02:34;;;;;;;73.30;31.38;;;3.60;99.90;;;;;;4997500;28;20594;-93
2022/01/19 06:05:00;;;;;;;72.45;32.00;;;3.70;99.90;;;;;;4997619;28;20398;-93
2022/01/19 06:07:29;;;;;;;70.93;31.75;;;3.70;99.90;;;;;;4992165;28;20095;-94
2022/01/19 06:10:05;;;;;;;68.90;31.90;;;3.70;99.90;;;;;;4997131;28;20729;-95
2022/01/19 06:12:31;;;;;;;71.35;32.47;;;3.70;99.90;;;;;;4997137;28;20045;-93
2022/01/19 06:14:57;;;;;;;66.57;32.47;;;3.70;99.90;;;;;;5012788;28;20052;-93
2022/01/19 06:17:29;;;;;;;70.22;32.78;;;3.70;99.90;;;;;;5012241;28;20517;-95
2022/01/19 06:19:55;;;;;;;65.40;31.90;;;3.80;99.90;;;;;;4997967;28;20056;-94
2022/01/19 06:22:21;;;;;;;70.47;31.55;;;3.80;99.90;;;;;;4997914;28;20045;-94
2022/01/19 06:24:48;;;;;;;68.63;33.22;;;3.80;99.90;;;;;;5012448;28;20042;-96
2022/01/19 06:27:17;;;;;;;71.68;32.20;;;3.80;99.90;;;;;;5025534;28;20057;-95
2022/01/19 06:29:43;;;;;;;66.80;33.33;;;3.80;99.90;;;;;;5025270;28;20035;-95
2022/01/19 06:32:18;;;;;;;58.38;31.00;;;3.90;99.90;;;;;;5030756;28;20053;-93
2022/01/19 06:34:44;;;;;;;62.85;30.15;;;3.90;99.90;;;;;;4997790;28;20072;-93
2022/01/19 06:37:11;;;;;;;57.58;29.95;;;3.90;99.90;;;;;;5015332;28;20049;-95
2022/01/19 06:39:37;;;;;;;57.80;30.20;;;3.90;99.90;;;;;;5005781;28;20122;-93
2022/01/19 06:42:02;;;;;;;57.33;28.33;;;3.90;99.90;;;;;;5012240;28;20074;-96
2022/01/19 06:44:28;;;;;;;60.83;30.70;;;3.90;99.90;;;;;;5019426;28;20091;-95
2022/01/19 06:46:54;;;;;;;62.00;30.40;;;3.90;99.90;;;;;;5020931;28;20048;-95
2022/01/19 06:49:26;;;;;;;60.17;29.95;;;3.90;99.90;;;;;;4999866;28;20034;-95
2022/01/19 06:51:51;;;;;;;57.65;29.45;;;3.90;99.90;;;;;;4994921;28;20042;-94
2022/01/19 06:54:17;;;;;;;57.20;29.85;;;3.90;99.90;;;;;;5001187;28;20112;-94
2022/01/19 06:56:43;;;;;;;53.85;28.35;;;3.90;99.90;;;;;;4981425;28;20046;-95
2022/01/19 06:59:08;;;;;;;66.13;31.58;;;3.90;99.90;;;;;;5004606;28;20110;-93
2022/01/19 07:01:34;;;;;;;55.03;28.83;;;4.00;99.90;;;;;;5004769;28;20038;-95
2022/01/19 07:04:11;;;;;;;54.35;28.20;;;3.90;99.90;;;;;;4998162;28;20049;-95
2022/01/19 07:06:38;;;;;;;52.85;28.60;;;4.00;99.90;;;;;;4989661;28;20410;-95
2022/01/19 07:09:04;;;;;;;54.17;28.33;;;4.00;99.90;;;;;;4993314;28;20132;-95
2022/01/19 07:11:29;;;;;;;50.17;26.55;;;4.00;99.90;;;;;;4983283;28;20125;-95
2022/01/19 07:16:30;;;;;;;51.65;29.10;;;4.00;99.90;;;;;;5873809;22;20438;-96
2022/01/19 07:19:22;;;;;;;49.75;28.83;;;3.90;99.90;;;;;;5035080;28;20055;-96
2022/01/19 07:38:34;;;;;;;42.95;26.52;;;3.90;99.90;;;;;;5005923;28;20038;-91
2022/01/19 07:41:00;;;;;;;42.78;26.13;;;3.90;99.90;;;;;;4982374;28;20054;-93
2022/01/19 07:43:25;;;;;;;37.00;25.75;;;3.90;99.90;;;;;;4979980;28;20384;-92
2022/01/19 07:45:51;;;;;;;41.80;27.40;;;3.90;99.90;;;;;;4975720;28;20044;-91
2022/01/19 07:48:22;;;;;;;42.28;26.35;;;3.90;99.90;;;;;;4976663;28;20405;-92
2022/01/19 07:50:48;;;;;;;40.58;25.20;;;3.90;99.90;;;;;;4973808;28;20041;-91
2022/01/19 07:53:14;;;;;;;41.60;25.35;;;3.90;99.90;;;;;;4982773;28;20042;-94
2022/01/19 07:55:39;;;;;;;38.45;25.77;;;3.90;99.90;;;;;;5003094;28;20044;-94
2022/01/19 07:58:05;;;;;;;43.70;26.48;;;3.90;99.90;;;;;;4996990;28;20042;-94
2022/01/19 08:00:33;;;;;;;40.83;25.50;;;3.90;99.90;;;;;;4997551;28;20044;-92
2022/01/19 08:03:09;;;;;;;39.83;25.63;;;3.90;99.90;;;;;;5010346;28;20041;-94
2022/01/19 08:05:35;;;;;;;40.28;25.75;;;3.90;99.90;;;;;;4978756;28;20041;-95
2022/01/19 08:08:02;;;;;;;43.78;26.38;;;3.90;99.90;;;;;;4987301;28;20108;-96
2022/01/19 08:10:29;;;;;;;40.20;25.65;;;3.90;99.90;;;;;;4993453;28;20129;-95
2022/01/19 08:12:55;;;;;;;42.25;25.38;;;3.80;99.90;;;;;;4979901;28;20045;-95
2022/01/19 08:15:21;;;;;;;41.40;26.58;;;3.90;99.90;;;;;;4980039;28;20048;-96
2022/01/19 08:17:56;;;;;;;41.40;26.90;;;3.90;99.90;;;;;;4983045;28;20413;-95
2022/01/19 08:20:22;;;;;;;41.40;27.60;;;3.90;99.90;;;;;;4980582;28;20038;-96
2022/01/19 08:22:48;;;;;;;42.70;28.50;;;3.90;99.90;;;;;;4973911;28;20046;-94
2022/01/19 08:25:14;;;;;;;41.53;27.48;;;3.90;99.90;;;;;;4997253;28;20026;-94
2022/01/19 08:27:40;;;;;;;40.92;27.15;;;3.90;99.90;;;;;;5014456;28;20048;-96
2022/01/19 08:30:07;;;;;;;41.70;27.33;;;3.90;99.90;;;;;;4990393;28;20030;-95
2022/01/19 08:32:38;;;;;;;39.47;26.00;;;4.00;99.90;;;;;;5002420;28;20028;-96
2022/01/19 08:54:47;;;;;;;44.28;29.00;;;4.00;99.90;;;;;;774898;22;20295;-92
2022/01/19 08:57:13;;;;;;;44.92;28.52;;;4.00;99.90;;;;;;5025888;28;20060;-95
2022/01/19 08:59:39;;;;;;;46.00;27.70;;;4.00;99.90;;;;;;5024260;28;20036;-95
2022/01/19 09:02:06;;;;;;;43.75;28.50;;;4.00;99.90;;;;;;5037717;28;20045;-95
2022/01/19 09:04:32;;;;;;;44.15;27.52;;;4.00;99.90;;;;;;5028782;28;20041;-95
2022/01/19 09:06:59;;;;;;;47.42;30.48;;;4.00;99.90;;;;;;5033374;28;20132;-93
2022/01/19 09:09:25;;;;;;;49.63;30.83;;;4.00;99.90;;;;;;5023518;28;20059;-96
2022/01/19 09:45:30;;;;;;;56.08;34.95;;;4.20;99.90;;;;;;5009924;28;20054;-92
2022/01/19 09:53:08;;;;;;;50.85;35.67;;;4.20;99.90;;;;;;5196130;22;20054;-95
2022/01/19 09:55:35;;;;;;;57.97;36.58;;;4.30;99.90;;;;;;4980445;28;20082;-96
2022/01/19 10:00:37;;;;;;;55.53;35.47;;;4.30;99.90;;;;;;5758515;23;20049;-95
2022/01/19 10:03:21;;;;;;;54.60;35.97;;;4.40;99.90;;;;;;5220555;23;20053;-95
2022/01/19 10:08:54;;;;;;;52.70;34.88;;;4.40;99.90;;;;;;5547109;22;20060;-95
2022/01/19 10:17:17;;;;;;;55.25;34.33;;;4.50;99.90;;;;;;5660207;22;20136;-95
2022/01/19 10:48:56;;;;;;;63.95;39.22;;;4.80;99.90;;;;;;5835773;22;20057;31
2022/01/19 10:51:31;;;;;;;66.00;39.20;;;4.80;99.90;;;;;;4990615;28;20061;-94
2022/01/19 10:54:12;;;;;;;61.35;41.00;;;4.80;99.90;;;;;;4993074;28;20048;-96
2022/01/19 10:56:43;;;;;;;65.25;40.80;;;4.80;99.90;;;;;;4981075;28;20065;-93
2022/01/19 10:59:14;;;;;;;67.03;39.40;;;4.80;99.90;;;;;;4976188;28;20101;-93
2022/01/19 11:01:45;;;;;;;61.75;40.45;;;4.80;99.90;;;;;;4971874;28;20065;-93
2022/01/19 11:04:38;;;;;;;61.15;39.63;;;4.90;99.90;;;;;;4984885;28;20053;-96
2022/01/19 11:07:07;;;;;;;66.00;41.45;;;5.00;99.90;;;;;;5005449;28;20056;-96
2022/01/19 11:09:44;;;;;;;67.30;41.40;;;4.90;99.90;;;;;;5007570;28;20061;-95
2022/01/19 11:12:14;;;;;;;68.40;43.35;;;5.00;99.90;;;;;;5012036;28;20065;-95
2022/01/19 11:14:40;;;;;;;69.53;42.42;;;5.00;99.90;;;;;;5041532;22;20030;-94
2022/01/19 11:17:07;;;;;;;67.20;41.55;;;5.00;99.90;;;;;;5056356;28;20037;-93
2022/01/19 11:19:45;;;;;;;66.60;45.13;;;5.00;99.90;;;;;;5024807;28;20643;-93
2022/01/19 11:22:37;;;;;;;68.78;43.00;;;5.00;99.90;;;;;;5028511;28;20054;-94
2022/01/19 11:30:29;;;;;;;76.47;45.45;;;5.00;99.90;;;;;;5437102;22;20034;-94
2022/01/19 11:56:09;;;;;;;83.82;48.83;;;4.90;99.90;;;;;;5058790;28;19951;-95
2022/01/19 11:58:35;;;;;;;88.72;51.53;;;4.90;99.90;;;;;;5049332;28;20037;-95
2022/01/19 12:01:01;;;;;;;88.13;48.85;;;4.80;99.90;;;;;;5112368;22;20068;-94
2022/01/19 12:03:30;;;;;;;92.78;48.60;;;4.90;99.90;;;;;;5032778;28;20029;-95
2022/01/19 12:12:12;;;;;;;93.00;48.80;;;4.90;99.90;;;;;;5216017;22;20136;-95
2022/01/19 12:14:39;;;;;;;91.97;51.33;;;4.90;99.90;;;;;;5076336;22;20042;-95
2022/01/19 12:17:15;;;;;;;81.93;46.92;;;5.00;99.90;;;;;;5214396;22;20077;-95
2022/01/19 12:19:45;;;;;;;93.18;51.10;;;5.10;99.90;;;;;;5020213;28;20038;-93
2022/01/19 12:22:20;;;;;;;86.38;52.55;;;5.00;99.90;;;;;;5016768;28;20106;-95
2022/01/19 12:25:08;;;;;;;83.72;49.13;;;5.10;99.90;;;;;;5024886;28;20052;-96
2022/01/19 12:32:51;;;;;;;82.68;47.78;;;5.00;99.90;;;;;;5122953;22;20061;-95
2022/01/19 12:35:31;;;;;;;83.85;50.90;;;5.10;99.90;;;;;;5018746;28;20049;-94
2022/01/19 12:37:58;;;;;;;86.35;47.65;;;5.10;99.90;;;;;;5017854;28;20045;-95
2022/01/19 12:40:33;;;;;;;88.38;48.25;;;5.10;99.90;;;;;;5000850;28;20042;-94
2022/01/19 12:43:03;;;;;;;87.32;48.67;;;5.10;99.90;;;;;;5006058;28;20457;-95
2022/01/19 12:45:45;;;;;;;88.95;48.17;;;5.10;99.90;;;;;;4997553;28;20045;-93
2022/01/19 12:48:12;;;;;;;87.70;49.53;;;5.00;99.90;;;;;;5028505;28;20056;-95
2022/01/19 12:50:43;;;;;;;85.72;49.30;;;5.00;99.90;;;;;;5001772;28;20124;-94
2022/01/19 12:53:23;;;;;;;89.53;53.97;;;5.00;99.90;;;;;;5001600;28;20128;-93
2022/01/19 12:55:59;;;;;;;86.30;50.83;;;5.00;99.90;;;;;;4999103;28;20540;-95
2022/01/19 12:58:31;;;;;;;86.10;49.00;;;5.00;99.90;;;;;;5021359;28;20042;-96
2022/01/19 13:00:59;;;;;;;86.10;49.58;;;5.00;99.90;;;;;;5011390;28;20039;-94
2022/01/19 13:03:35;;;;;;;89.40;49.10;;;5.00;99.90;;;;;;5003034;28;20049;-96
2022/01/19 13:06:07;;;;;;;86.57;52.53;;;5.00;99.90;;;;;;5013120;28;20121;-95
2022/01/19 13:08:58;;;;;;;85.45;47.25;;;5.00;99.90;;;;;;5001659;28;20055;-96
2022/01/19 13:11:36;;;;;;;83.63;47.67;;;5.00;99.90;;;;;;5000709;28;20071;-93
2022/01/19 13:14:08;;;;;;;88.13;51.67;;;5.00;99.90;;;;;;4999292;28;20053;-94
2022/01/19 13:16:35;;;;;;;;;;;5.00;99.90;;;;;;4999807;28;20128;-93
2022/01/19 13:19:18;;;;;;;84.32;47.13;;;5.00;99.90;;;;;;5022685;28;19956;-94
2022/01/19 13:21:57;;;;;;;82.82;48.42;;;5.10;99.90;;;;;;4989782;28;20400;-95
2022/01/19 13:24:27;;;;;;;85.38;48.00;;;5.10;99.90;;;;;;5000453;28;20069;-92
2022/01/19 13:26:54;;;;;;;84.05;51.10;;;5.10;99.90;;;;;;5004623;28;20041;-95
2022/01/19 13:29:35;;;;;;;77.82;45.22;;;5.10;99.90;;;;;;5005730;28;20037;-96
2022/01/19 13:32:12;;;;;;;80.63;48.33;;;5.10;99.90;;;;;;5000757;28;20122;-93
2022/01/19 13:34:57;;;;;;;85.25;47.40;;;5.20;99.90;;;;;;4988137;28;20061;-93
2022/01/19 13:37:29;;;;;;;83.50;48.88;;;5.30;99.90;;;;;;4975545;28;20052;-91
2022/01/19 13:39:58;;;;;;;79.65;46.13;;;5.30;99.90;;;;;;5000086;28;20034;-95
2022/01/19 13:42:31;;;;;;;75.78;47.25;;;5.40;99.90;;;;;;4989808;28;20050;-94
2022/01/19 13:44:58;;;;;;;70.10;43.88;;;5.40;99.90;;;;;;4983739;28;20101;-93
2022/01/19 13:47:30;;;;;;;69.82;46.28;;;5.40;99.90;;;;;;5005591;28;20049;-95
2022/01/19 13:49:56;;;;;;;67.88;41.58;;;5.50;99.90;;;;;;5001372;28;20623;-96
2022/01/19 13:52:24;;;;;;;70.22;45.60;;;5.50;99.90;;;;;;4999445;28;20039;-93
2022/01/19 13:54:51;;;;;;;65.22;39.20;;;5.50;99.90;;;;;;4993288;28;20038;-96
2022/01/19 14:00:15;;;;;;;60.38;38.90;;;5.60;99.90;;;;;;5174234;22;20044;-95
2022/01/19 14:08:11;;;;;;;55.80;39.92;;;5.70;99.90;;;;;;5027320;28;19927;-95
2022/01/19 14:13:33;;;;;;;55.33;39.10;;;5.70;99.90;;;;;;5478645;22;20059;-94
2022/01/19 14:16:25;;;;;;;57.55;37.17;;;5.70;99.90;;;;;;5393163;22;20053;-96
2022/01/19 14:22:09;;;;;;;53.03;34.50;;;5.70;99.90;;;;;;5149099;22;20034;-96
2022/01/19 14:24:42;;;;;;;53.03;38.50;;;5.70;99.90;;;;;;4994535;28;20057;-95
2022/01/19 14:35:51;;;;;;;62.97;37.45;;;5.70;99.90;;;;;;5420514;22;20052;-96
2022/01/19 14:38:37;;;;;;;58.75;37.97;;;5.70;99.90;;;;;;5040844;23;20041;-94
2022/01/19 14:41:18;;;;;;;63.15;37.80;;;5.60;99.90;;;;;;5186515;23;20053;-94
2022/01/19 14:43:52;;;;;;;62.33;42.28;;;5.60;99.90;;;;;;5217513;23;20086;-96
2022/01/19 14:46:30;;;;;;;64.10;37.80;;;5.70;99.90;;;;;;5166357;23;20062;-95
2022/01/19 14:49:35;;;;;;;60.42;40.25;;;5.60;99.90;;;;;;5191553;23;20034;31
2022/01/19 14:52:04;;;;;;;63.67;39.78;;;5.60;99.90;;;;;;5377385;23;20070;-96
2022/01/19 14:54:30;;;;;;;61.28;37.13;;;5.60;99.90;;;;;;5094888;22;20062;-95
2022/01/19 14:56:56;;;;;;;66.63;43.95;;;5.60;99.90;;;;;;4973637;28;20056;-94
2022/01/19 14:59:25;;;;;;;64.72;39.80;;;5.60;99.90;;;;;;4964210;28;20043;-96
2022/01/19 15:01:58;;;;;;;64.85;40.80;;;5.60;99.90;;;;;;5251459;23;20338;-95
2022/01/19 15:04:24;;;;;;;66.03;43.63;;;5.60;99.90;;;;;;5021520;28;20046;-95
2022/01/19 15:06:50;;;;;;;62.25;42.78;;;5.60;99.90;;;;;;5302480;23;20039;-95
2022/01/19 15:09:17;;;;;;;64.85;44.63;;;5.60;99.90;;;;;;4987954;28;20046;-96
2022/01/19 15:11:43;;;;;;;63.88;38.92;;;5.60;99.90;;;;;;4982732;28;20053;-96
2022/01/19 15:14:10;;;;;;;67.07;41.53;;;5.60;99.90;;;;;;5007890;28;20042;-93
2022/01/19 15:16:36;;;;;;;71.85;46.45;;;5.60;99.90;;;;;;4994182;28;20038;-94
2022/01/19 15:19:05;;;;;;;69.10;45.10;;;5.60;99.90;;;;;;4982165;28;20414;-95
2022/01/19 15:21:31;;;;;;;72.60;41.90;;;5.60;99.90;;;;;;4988980;28;20058;-91
2022/01/19 15:23:59;;;;;;;73.93;42.67;;;5.50;99.90;;;;;;4971426;28;20049;-92
2022/01/19 15:26:26;;;;;;;70.20;46.33;;;5.60;99.90;;;;;;5013254;28;20121;-95
2022/01/19 15:28:51;;;;;;;72.47;48.10;;;5.60;99.90;;;;;;5006909;28;20029;-93
2022/01/19 15:31:17;;;;;;;74.47;47.53;;;5.70;99.90;;;;;;4986333;28;20046;-93
2022/01/19 15:33:43;;;;;;;69.97;42.10;;;5.60;99.90;;;;;;4963988;28;20064;-94
2022/01/19 15:36:10;;;;;;;73.95;42.42;;;5.60;99.90;;;;;;4985484;28;20049;-91
2022/01/19 15:38:38;;;;;;;71.97;39.85;;;5.60;99.90;;;;;;4995550;28;20403;-94
2022/01/19 15:41:04;;;;;;;67.78;44.63;;;5.60;99.90;;;;;;4993505;28;20089;-95
2022/01/19 15:43:30;;;;;;;63.03;38.30;;;5.70;99.90;;;;;;4977335;28;20037;-93
2022/01/19 15:45:58;;;;;;;60.80;39.42;;;5.70;99.90;;;;;;4977545;28;20048;-94
2022/01/19 15:48:24;;;;;;;65.13;41.17;;;5.70;99.90;;;;;;4980563;28;20042;-93
2022/01/19 15:50:52;;;;;;;64.18;38.03;;;5.70;99.90;;;;;;5000725;28;20049;-93
2022/01/19 15:53:20;;;;;;;63.50;37.60;;;5.70;99.90;;;;;;4986222;28;20089;-92
2022/01/19 15:55:48;;;;;;;65.45;42.70;;;5.70;99.90;;;;;;4981423;28;20065;-91
2022/01/19 15:58:15;;;;;;;64.28;39.00;;;5.70;99.90;;;;;;5019951;28;20046;-94
2022/01/19 16:00:42;;;;;;;70.22;42.80;;;5.80;99.90;;;;;;4982758;28;20038;-93
2022/01/19 16:03:09;;;;;;;71.57;42.22;;;5.80;99.90;;;;;;4999515;28;20052;-95
2022/01/19 16:05:35;;;;;;;74.15;43.63;;;5.80;99.90;;;;;;4993287;28;20125;-94
2022/01/19 16:08:03;;;;;;;73.40;39.25;;;5.80;99.90;;;;;;4968610;28;20062;-92
2022/01/19 16:10:29;;;;;;;66.90;41.22;;;5.80;99.90;;;;;;4962956;28;20055;-94
2022/01/19 16:12:54;;;;;;;69.78;44.10;;;5.90;99.90;;;;;;4963869;28;20045;-93
2022/01/19 16:15:20;;;;;;;68.30;36.38;;;5.90;99.90;;;;;;4944131;28;20169;-96
2022/01/19 16:17:46;;;;;;;61.10;35.30;;;5.90;99.90;;;;;;4956522;28;20038;-94
2022/01/19 16:20:13;;;;;;;65.43;38.75;;;5.90;99.90;;;;;;4956528;28;20398;-92
2022/01/19 16:28:07;;;;;;;56.72;35.80;;;6.00;99.90;;;;;;4978286;28;20087;-93
2022/01/19 16:30:33;;;;;;;57.58;35.80;;;6.00;99.90;;;;;;4965581;28;20054;-94
2022/01/19 16:32:59;;;;;;;49.10;29.77;;;6.10;99.90;;;;;;4976831;28;20030;-91
2022/01/19 16:35:25;;;;;;;49.45;30.60;;;6.10;99.90;;;;;;4982162;28;20098;-94
2022/01/19 16:37:52;;;;;;;47.63;28.50;;;6.20;99.90;;;;;;4992843;28;20435;-93
2022/01/19 16:40:18;;;;;;;44.58;26.65;;;6.30;99.90;;;;;;5051539;23;20058;-91
2022/01/19 16:42:43;;;;;;;42.58;23.38;;;6.30;99.90;;;;;;5006160;28;20030;-89
2022/01/19 16:45:09;;;;;;;39.35;23.83;;;6.40;99.90;;;;;;5027301;28;20056;-94
2022/01/19 16:47:42;;;;;;;40.78;25.17;;;6.50;99.90;;;;;;5005823;28;20167;-94
2022/01/19 16:50:09;;;;;;;44.60;25.25;;;6.50;99.90;;;;;;4982551;28;20111;-94
2022/01/19 16:52:35;;;;;;;46.80;26.55;;;6.50;99.90;;;;;;4981480;28;20044;-93
2022/01/19 16:55:02;;;;;;;42.40;24.83;;;6.60;99.90;;;;;;5000080;28;20113;-92
2022/01/19 16:57:29;;;;;;;40.85;24.67;;;6.70;99.90;;;;;;4998594;28;20050;-94
2022/01/19 16:59:55;;;;;;;42.20;21.27;;;6.70;99.90;;;;;;4996637;28;20046;-94
2022/01/19 17:02:20;;;;;;;36.22;23.10;;;6.70;99.90;;;;;;4965940;28;20042;-93
2022/01/19 17:04:46;;;;;;;33.65;18.85;;;6.70;99.90;;;;;;4992340;28;20076;-94
2022/01/19 17:07:12;;;;;;;37.13;19.30;;;6.70;99.90;;;;;;4997945;28;20041;-93
2022/01/19 17:09:37;;;;;;;36.20;17.70;;;6.70;99.90;;;;;;4981664;28;20033;-92